createdAt,value
2023-03-26T00:01:30.179Z,9.07
2023-03-26T00:04:34.469Z,9.07
2023-03-26T00:07:38.376Z,9.09
2023-03-26T00:10:43.232Z,9.08
2023-03-26T00:13:47.683Z,9.00
2023-03-26T00:16:51.811Z,8.99
2023-03-26T00:19:57.045Z,8.90
2023-03-26T00:23:03.908Z,8.86
2023-03-26T00:26:10.511Z,8.88
2023-03-26T00:29:15.548Z,8.84
2023-03-26T00:32:19.462Z,8.84
2023-03-26T00:35:23.930Z,8.83
2023-03-26T00:38:28.601Z,8.72
2023-03-26T00:41:32.592Z,8.78
2023-03-26T00:44:36.754Z,8.72
2023-03-26T00:47:41.072Z,8.73
2023-03-26T00:50:46.307Z,8.81
2023-03-26T00:53:50.714Z,8.72
2023-03-26T00:56:55.901Z,8.67
2023-03-26T01:00:08.780Z,8.65
2023-03-26T01:03:21.888Z,8.60
2023-03-26T01:06:32.908Z,8.64
2023-03-26T01:09:42.859Z,8.60
2023-03-26T01:12:46.651Z,8.61
2023-03-26T01:15:51.157Z,8.62
2023-03-26T01:18:58.724Z,8.67
2023-03-26T01:22:02.793Z,8.68
2023-03-26T01:25:07.273Z,8.73
2023-03-26T01:28:12.536Z,8.74
2023-03-26T01:31:51.938Z,8.73
2023-03-26T01:34:59.116Z,8.71
2023-03-26T01:38:10.736Z,8.79
2023-03-26T01:41:18.002Z,8.78
2023-03-26T01:44:31.509Z,8.72
2023-03-26T01:47:36.666Z,8.73
2023-03-26T01:50:40.962Z,8.73
2023-03-26T01:53:46.214Z,8.67
2023-03-26T01:56:57.054Z,8.54
2023-03-26T02:00:07.053Z,8.55
2023-03-26T02:03:46.681Z,8.53
2023-03-26T02:06:53.799Z,8.59
2023-03-26T02:10:00.557Z,8.53
2023-03-26T02:13:05.920Z,8.48
2023-03-26T02:16:14.341Z,8.41
2023-03-26T02:19:21.959Z,8.36
2023-03-26T02:22:29.798Z,8.37
2023-03-26T02:25:35.347Z,8.32
2023-03-26T02:28:39.217Z,8.28
2023-03-26T02:31:43.455Z,8.31
2023-03-26T02:34:47.662Z,8.33
2023-03-26T02:37:51.479Z,8.39
2023-03-26T02:40:55.773Z,8.41
2023-03-26T02:43:59.947Z,8.30
2023-03-26T02:47:03.789Z,8.31
2023-03-26T02:50:09.058Z,8.17
2023-03-26T02:53:13.672Z,8.10
2023-03-26T02:56:17.976Z,8.09
2023-03-26T02:59:21.842Z,8.18
2023-03-26T03:02:25.618Z,8.12
2023-03-26T03:05:31.505Z,8.15
2023-03-26T03:08:35.659Z,8.15
2023-03-26T03:11:40.831Z,8.16
2023-03-26T03:14:45.202Z,8.29
2023-03-26T03:17:48.941Z,8.32
2023-03-26T03:20:53.989Z,8.38
2023-03-26T03:24:00.190Z,8.31
2023-03-26T03:27:04.664Z,8.21
2023-03-26T03:30:09.342Z,8.16
2023-03-26T03:33:13.588Z,8.23
2023-03-26T03:36:20.140Z,8.35
2023-03-26T03:39:25.511Z,8.37
2023-03-26T03:42:29.301Z,8.33
2023-03-26T03:45:34.036Z,8.28
2023-03-26T03:48:39.121Z,8.28
2023-03-26T03:51:43.535Z,8.29
2023-03-26T03:54:47.713Z,8.27
2023-03-26T03:57:52.498Z,8.28
2023-03-26T04:01:03.131Z,8.29
2023-03-26T04:04:07.309Z,8.21
2023-03-26T04:07:11.442Z,8.18
2023-03-26T04:10:16.100Z,8.14
2023-03-26T04:13:20.167Z,8.16
2023-03-26T04:16:24.661Z,8.14
2023-03-26T04:19:28.737Z,8.12
2023-03-26T04:22:34.850Z,8.16
2023-03-26T04:25:39.461Z,8.16
2023-03-26T04:28:46.567Z,8.16
2023-03-26T04:31:51.635Z,8.18
2023-03-26T04:34:56.258Z,8.21
2023-03-26T04:38:01.583Z,8.25
2023-03-26T04:41:07.566Z,8.17
2023-03-26T04:44:14.317Z,8.05
2023-03-26T04:47:18.656Z,8.04
2023-03-26T04:50:22.883Z,8.01
2023-03-26T04:53:26.831Z,7.99
2023-03-26T04:56:43.367Z,8.08
2023-03-26T04:59:47.810Z,8.22
2023-03-26T05:02:56.009Z,8.30
2023-03-26T05:06:00.733Z,8.32
2023-03-26T05:09:04.668Z,8.35
2023-03-26T05:12:08.721Z,8.38
2023-03-26T05:15:12.989Z,8.51
2023-03-26T05:18:20.060Z,8.50
2023-03-26T05:21:24.700Z,8.61
2023-03-26T05:24:28.940Z,8.60
2023-03-26T05:27:33.271Z,8.61
2023-03-26T05:30:37.480Z,8.71
2023-03-26T05:33:41.714Z,8.67
2023-03-26T05:36:46.195Z,8.68
2023-03-26T05:39:54.568Z,8.68
2023-03-26T05:42:58.656Z,8.71
2023-03-26T05:46:03.712Z,8.71
2023-03-26T05:49:07.564Z,8.75
2023-03-26T05:52:15.099Z,8.72
2023-03-26T05:55:20.240Z,8.81
2023-03-26T05:58:31.920Z,8.79
2023-03-26T06:01:35.673Z,8.88
2023-03-26T06:04:40.999Z,8.98
2023-03-26T06:07:45.236Z,8.93
2023-03-26T06:10:50.795Z,8.97
2023-03-26T06:13:54.774Z,9.01
2023-03-26T06:16:58.625Z,9.04
2023-03-26T06:20:02.951Z,9.11
2023-03-26T06:23:06.861Z,9.13
2023-03-26T06:26:10.939Z,9.16
2023-03-26T06:29:15.392Z,9.13
2023-03-26T06:32:20.531Z,9.18
2023-03-26T06:35:24.793Z,9.30
2023-03-26T06:38:28.731Z,9.34
2023-03-26T06:41:34.464Z,9.47
2023-03-26T06:44:38.442Z,9.45
2023-03-26T06:47:42.643Z,9.49
2023-03-26T06:50:46.826Z,9.49
2023-03-26T06:53:51.102Z,9.47
2023-03-26T06:56:56.194Z,9.52
2023-03-26T07:00:00.628Z,9.62
2023-03-26T07:03:05.576Z,9.64
2023-03-26T07:06:09.674Z,9.77
2023-03-26T07:09:13.956Z,9.90
2023-03-26T07:12:17.825Z,9.90
2023-03-26T07:15:21.789Z,9.98
2023-03-26T07:18:25.804Z,10.14
2023-03-26T07:21:29.981Z,10.11
2023-03-26T07:24:40.519Z,10.26
2023-03-26T07:28:05.438Z,10.26
2023-03-26T07:31:27.226Z,10.40
2023-03-26T07:34:38.567Z,10.36
2023-03-26T07:38:01.102Z,10.57
2023-03-26T07:41:11.157Z,10.70
2023-03-26T07:44:27.619Z,10.92
2023-03-26T07:47:35.436Z,11.14
2023-03-26T07:50:39.585Z,11.43
2023-03-26T07:53:43.908Z,11.52
2023-03-26T07:56:50.919Z,11.50
2023-03-26T08:00:02.297Z,11.41
2023-03-26T08:03:25.705Z,11.26
2023-03-26T08:06:29.823Z,11.25
2023-03-26T08:09:46.278Z,11.30
2023-03-26T08:12:50.079Z,11.36
2023-03-26T08:16:08.103Z,11.51
2023-03-26T08:19:24.341Z,11.71
2023-03-26T08:22:36.677Z,11.74
2023-03-26T08:25:51.837Z,11.80
2023-03-26T08:29:26.665Z,11.93
2023-03-26T08:32:31.381Z,11.85
2023-03-26T08:35:35.486Z,11.98
2023-03-26T08:38:39.573Z,12.05
2023-03-26T08:42:09.923Z,12.08
2023-03-26T08:45:13.799Z,12.27
2023-03-26T08:48:46.738Z,12.38
2023-03-26T08:52:10.005Z,12.23
2023-03-26T08:55:13.848Z,12.23
2023-03-26T08:58:43.866Z,12.22
2023-03-26T09:01:47.876Z,12.25
2023-03-26T09:04:52.071Z,12.55
2023-03-26T09:08:08.549Z,12.53
2023-03-26T09:11:18.435Z,12.80
2023-03-26T09:14:48.562Z,13.27
2023-03-26T09:18:12.753Z,13.32
2023-03-26T09:21:21.521Z,13.11
2023-03-26T09:24:43.921Z,13.16
2023-03-26T09:28:06.215Z,13.27
2023-03-26T09:31:13.241Z,13.60
2023-03-26T09:34:43.200Z,13.41
2023-03-26T09:37:58.169Z,13.31
2023-03-26T09:41:07.919Z,13.19
2023-03-26T09:44:17.824Z,13.44
2023-03-26T09:47:36.753Z,13.40
2023-03-26T09:50:50.029Z,13.15
2023-03-26T09:54:06.744Z,13.04
2023-03-26T09:57:11.143Z,13.13
2023-03-26T10:00:15.837Z,13.44
2023-03-26T10:03:26.901Z,13.55
2023-03-26T10:06:54.187Z,13.57
2023-03-26T10:10:08.934Z,13.67
2023-03-26T10:13:14.871Z,13.87
2023-03-26T10:16:19.095Z,13.79
2023-03-26T10:19:41.528Z,13.55
2023-03-26T10:23:03.932Z,13.52
2023-03-26T10:26:27.163Z,13.59
2023-03-26T10:29:34.126Z,13.61
2023-03-26T10:32:39.581Z,13.47
2023-03-26T10:36:09.100Z,13.25
2023-03-26T10:39:37.203Z,13.21
2023-03-26T10:42:37.286Z,13.22
2023-03-26T10:45:41.032Z,13.52
2023-03-26T10:48:45.291Z,13.63
2023-03-26T10:51:55.253Z,13.65
2023-03-26T10:55:08.299Z,13.82
2023-03-26T10:58:15.386Z,13.98
2023-03-26T11:01:24.301Z,14.17
2023-03-26T11:04:47.475Z,14.21
2023-03-26T11:08:00.047Z,14.15
2023-03-26T11:11:11.043Z,14.10
2023-03-26T11:14:35.748Z,14.05
2023-03-26T11:17:41.534Z,14.21
2023-03-26T11:20:48.618Z,14.27
2023-03-26T11:24:04.886Z,14.15
2023-03-26T11:27:27.378Z,14.15
2023-03-26T11:30:44.880Z,14.08
2023-03-26T11:33:52.741Z,14.21
2023-03-26T11:36:58.860Z,14.18
2023-03-26T11:40:07.725Z,14.18
2023-03-26T11:43:13.409Z,14.10
2023-03-26T11:46:18.539Z,13.94
2023-03-26T11:49:22.876Z,13.94
2023-03-26T11:52:27.442Z,13.83
2023-03-26T11:55:31.688Z,13.77
2023-03-26T11:58:47.451Z,13.61
2023-03-26T12:01:59.007Z,13.39
2023-03-26T12:05:14.803Z,13.21
2023-03-26T12:08:20.069Z,13.12
2023-03-26T12:11:28.084Z,13.09
2023-03-26T12:14:34.223Z,13.02
2023-03-26T12:17:40.130Z,12.98
2023-03-26T12:20:45.015Z,13.13
2023-03-26T12:24:05.681Z,13.21
2023-03-26T12:27:22.152Z,13.24
2023-03-26T12:30:27.212Z,13.43
2023-03-26T12:33:34.860Z,13.50
2023-03-26T12:36:39.282Z,13.12
2023-03-26T12:40:10.011Z,12.54
2023-03-26T12:44:54.486Z,11.88
2023-03-26T12:47:55.087Z,11.69
2023-03-26T12:50:14.843Z,11.54
2023-03-26T12:53:19.222Z,11.46
2023-03-26T12:56:42.914Z,11.33
2023-03-26T12:59:54.309Z,11.59
2023-03-26T13:03:01.218Z,11.86
2023-03-26T13:06:13.887Z,12.13
2023-03-26T13:09:25.393Z,12.40
2023-03-26T13:12:29.248Z,12.58
2023-03-26T13:15:35.716Z,12.63
2023-03-26T13:18:53.149Z,12.67
2023-03-26T13:22:16.185Z,12.71
2023-03-26T13:25:23.299Z,12.58
2023-03-26T13:28:36.680Z,12.38
2023-03-26T13:31:59.507Z,12.39
2023-03-26T13:35:12.591Z,12.22
2023-03-26T13:38:16.773Z,12.10
2023-03-26T13:41:21.042Z,11.89
2023-03-26T13:44:24.825Z,11.84
2023-03-26T13:47:30.885Z,11.71
2023-03-26T13:50:37.647Z,11.51
2023-03-26T13:53:44.763Z,11.45
2023-03-26T13:57:08.876Z,11.45
2023-03-26T14:00:17.262Z,11.42
2023-03-26T14:03:35.707Z,11.37
2023-03-26T14:06:43.319Z,11.24
2023-03-26T14:09:56.970Z,11.06
2023-03-26T14:13:07.160Z,10.99
2023-03-26T14:16:14.329Z,11.04
2023-03-26T14:19:25.886Z,11.06
2023-03-26T14:22:30.391Z,11.01
2023-03-26T14:25:37.577Z,11.05
2023-03-26T14:28:56.931Z,10.84
2023-03-26T14:32:12.674Z,10.69
2023-03-26T14:35:37.361Z,10.45
2023-03-26T14:38:53.958Z,10.43
2023-03-26T14:42:13.184Z,10.48
2023-03-26T14:45:16.828Z,10.45
2023-03-26T14:48:33.132Z,10.42
2023-03-26T14:51:41.425Z,10.29
2023-03-26T14:54:48.191Z,10.21
2023-03-26T14:57:52.464Z,10.16
2023-03-26T15:01:17.236Z,10.14
2023-03-26T15:04:39.908Z,10.06
2023-03-26T15:08:02.412Z,10.02
2023-03-26T15:11:32.741Z,10.04
2023-03-26T15:14:41.652Z,10.04
2023-03-26T15:17:52.495Z,10.04
2023-03-26T15:20:59.594Z,10.01
2023-03-26T15:24:06.780Z,10.00
2023-03-26T15:27:18.714Z,9.94
2023-03-26T15:30:32.965Z,9.94
2023-03-26T15:33:57.085Z,9.92
2023-03-26T15:37:05.206Z,9.86
2023-03-26T15:40:24.703Z,9.86
2023-03-26T15:44:01.578Z,9.86
2023-03-26T15:47:18.335Z,9.84
2023-03-26T15:50:57.888Z,9.86
2023-03-26T15:54:30.087Z,9.88
2023-03-26T15:57:41.185Z,9.96
2023-03-26T16:01:06.492Z,9.98
2023-03-26T16:04:34.220Z,10.06
2023-03-26T16:07:42.522Z,9.89
2023-03-26T16:10:51.524Z,9.90
2023-03-26T16:14:17.297Z,9.83
2023-03-26T16:17:24.786Z,9.85
2023-03-26T16:20:32.949Z,9.76
2023-03-26T16:23:47.590Z,9.71
2023-03-26T16:26:51.829Z,9.75
2023-03-26T16:30:06.979Z,9.69
2023-03-26T16:33:13.999Z,9.63
2023-03-26T16:36:38.897Z,9.60
2023-03-26T16:39:44.266Z,9.54
2023-03-26T16:43:11.880Z,9.55
2023-03-26T16:46:15.927Z,9.57
2023-03-26T16:49:38.562Z,9.59
2023-03-26T16:52:50.600Z,9.60
2023-03-26T16:56:28.038Z,9.62
2023-03-26T17:00:05.280Z,9.65
2023-03-26T17:03:16.951Z,9.67
2023-03-26T17:06:30.833Z,9.54
2023-03-26T17:09:51.545Z,9.45
2023-03-26T17:13:00.932Z,9.44
2023-03-26T17:16:23.669Z,9.40
2023-03-26T17:19:39.391Z,9.41
2023-03-26T17:23:07.197Z,9.42
2023-03-26T17:26:26.701Z,9.37
2023-03-26T17:29:36.497Z,9.43
2023-03-26T17:32:58.894Z,9.34
2023-03-26T17:36:12.573Z,9.32
2023-03-26T17:39:21.387Z,9.25
2023-03-26T17:42:36.163Z,9.27
2023-03-26T17:45:42.088Z,9.23
2023-03-26T17:48:47.216Z,9.22
2023-03-26T17:51:55.594Z,9.24
2023-03-26T17:55:01.771Z,9.23
2023-03-26T17:58:06.953Z,9.25
2023-03-26T18:01:22.329Z,9.23
2023-03-26T18:04:30.167Z,9.20
2023-03-26T18:07:47.948Z,9.23
2023-03-26T18:11:00.255Z,9.23
2023-03-26T18:14:04.726Z,9.24
2023-03-26T18:17:09.083Z,9.26
2023-03-26T18:20:23.340Z,9.30
2023-03-26T18:23:35.661Z,9.25
2023-03-26T18:26:41.717Z,9.23
2023-03-26T18:30:02.706Z,9.29
2023-03-26T18:33:14.636Z,9.29
2023-03-26T18:36:18.671Z,9.29
2023-03-26T18:39:22.455Z,9.29
2023-03-26T18:42:27.206Z,9.25
2023-03-26T18:45:33.691Z,9.20
2023-03-26T18:48:37.913Z,9.15
2023-03-26T18:51:54.175Z,9.13
2023-03-26T18:55:02.324Z,9.09
2023-03-26T18:58:25.189Z,9.07
2023-03-26T19:01:30.816Z,9.02
2023-03-26T19:04:36.905Z,9.01
2023-03-26T19:07:41.510Z,9.05
2023-03-26T19:10:48.077Z,9.01
2023-03-26T19:13:59.944Z,8.95
2023-03-26T19:17:05.836Z,8.91
2023-03-26T19:20:29.642Z,8.85
2023-03-26T19:23:36.301Z,8.79
2023-03-26T19:26:40.393Z,8.76
2023-03-26T19:29:44.924Z,8.75
2023-03-26T19:32:53.297Z,8.73
2023-03-26T19:36:12.953Z,8.77
2023-03-26T19:39:24.304Z,8.87
2023-03-26T19:42:43.457Z,8.87
2023-03-26T19:49:27.284Z,8.77
2023-03-26T19:51:18.279Z,8.81
2023-03-26T19:52:38.343Z,8.75
2023-03-26T19:55:43.015Z,8.72
2023-03-26T19:58:47.245Z,8.69
2023-03-26T20:01:51.108Z,8.64
2023-03-26T20:04:54.963Z,8.60
2023-03-26T20:08:00.010Z,8.59
2023-03-26T20:11:03.989Z,8.57
2023-03-26T20:14:15.841Z,8.50
2023-03-26T20:17:21.709Z,8.53
2023-03-26T20:20:27.102Z,8.63
2023-03-26T20:23:31.209Z,8.58
2023-03-26T20:26:35.066Z,8.55
2023-03-26T20:29:39.014Z,8.55
2023-03-26T20:32:44.405Z,8.57
2023-03-26T20:35:49.414Z,8.54
2023-03-26T20:38:53.319Z,8.51
2023-03-26T20:41:57.692Z,8.49
2023-03-26T20:45:02.324Z,8.50
2023-03-26T20:48:07.839Z,8.43
2023-03-26T20:51:14.003Z,8.40
2023-03-26T20:54:25.085Z,8.41
2023-03-26T20:57:29.376Z,8.33
2023-03-26T21:00:33.641Z,8.34
2023-03-26T21:03:38.369Z,8.31
2023-03-26T21:06:42.544Z,8.31
2023-03-26T21:09:47.328Z,8.33
2023-03-26T21:13:10.449Z,8.30
2023-03-26T21:16:14.968Z,8.25
2023-03-26T21:19:19.341Z,8.21
2023-03-26T21:22:36.204Z,8.24
2023-03-26T21:26:01.400Z,8.22
2023-03-26T21:29:05.232Z,8.21
2023-03-26T21:32:10.728Z,8.23
2023-03-26T21:35:16.267Z,8.21
2023-03-26T21:38:23.750Z,8.18
2023-03-26T21:41:35.990Z,8.20
2023-03-26T21:44:40.829Z,8.15
2023-03-26T21:47:45.515Z,8.20
2023-03-26T21:50:49.560Z,8.15
2023-03-26T21:53:53.728Z,8.11
2023-03-26T21:57:01.220Z,8.07
2023-03-26T22:00:11.639Z,8.10
2023-03-26T22:03:23.494Z,8.02
2023-03-26T22:06:31.384Z,8.04
2023-03-26T22:09:36.419Z,8.02
2023-03-26T22:12:41.541Z,8.04
2023-03-26T22:15:46.167Z,8.01
2023-03-26T22:18:50.346Z,8.02
2023-03-26T22:21:54.431Z,8.02
2023-03-26T22:24:58.840Z,7.90
2023-03-26T22:28:02.532Z,7.83
2023-03-26T22:31:09.176Z,7.80
2023-03-26T22:34:13.511Z,7.86
2023-03-26T22:37:17.414Z,7.86
2023-03-26T22:40:21.777Z,7.85
2023-03-26T22:43:25.462Z,7.80
2023-03-26T22:46:31.060Z,7.75
2023-03-26T22:49:35.347Z,7.70
2023-03-26T22:52:41.109Z,7.71
2023-03-26T22:55:45.100Z,7.62
2023-03-26T22:58:48.708Z,7.40
2023-03-26T23:01:52.662Z,7.30
2023-03-26T23:04:56.840Z,7.24
2023-03-26T23:08:00.947Z,7.20
2023-03-26T23:11:09.382Z,7.26
2023-03-26T23:14:13.310Z,7.22
2023-03-26T23:17:17.579Z,7.10
2023-03-26T23:20:21.405Z,7.11
2023-03-26T23:23:29.518Z,6.88
2023-03-26T23:26:43.960Z,6.74
2023-03-26T23:29:55.366Z,6.62
2023-03-26T23:32:59.325Z,6.60
2023-03-26T23:36:10.084Z,6.60
2023-03-26T23:39:14.104Z,6.56
2023-03-26T23:42:29.199Z,6.55
2023-03-26T23:45:33.886Z,6.47
2023-03-26T23:48:38.072Z,6.44
2023-03-26T23:51:42.325Z,6.36
2023-03-26T23:54:47.316Z,6.32
2023-03-26T23:57:51.693Z,6.31
